Time;durP1;ratioP1;P1;durP2;ratioP2;P2;SDS_P1;SDS_P2;PMS_P1;PMS_P2;Temp;Humidity;BMP_temperature;BMP_pressure;BME280_temperature;BME280_humidity;BME280_pressure;Samples;Min_cycle;Max_cycle;Signal;HPM_P1;HPM_P2
2023/12/16 00:00:18;;;;;;;28.40;10.07;;;7.30;99.90;;;6.44;100.00;102970.31;5074723;28;20205;-75
2023/12/16 00:02:46;;;;;;;22.90;10.60;;;7.30;99.90;;;6.44;100.00;102966.78;5073966;28;20641;-75
2023/12/16 00:05:14;;;;;;;35.23;10.97;;;7.20;99.90;;;6.40;100.00;102963.47;5074345;28;20245;-75
2023/12/16 00:07:42;;;;;;;21.93;10.27;;;7.30;99.90;;;6.40;100.00;102955.47;5074284;28;20205;-75
2023/12/16 00:10:11;;;;;;;23.23;9.93;;;7.20;99.90;;;6.39;100.00;102960.88;5074102;28;20281;-75
2023/12/16 00:12:40;;;;;;;22.97;9.70;;;7.20;99.90;;;6.39;100.00;102953.75;5073826;28;20720;-75
2023/12/16 00:15:14;;;;;;;23.40;10.10;;;7.30;99.90;;;6.39;100.00;102959.06;5073684;28;20679;-75
2023/12/16 00:17:42;;;;;;;29.10;11.27;;;7.20;99.90;;;6.39;100.00;102958.22;5074220;28;20239;-75
2023/12/16 00:20:11;;;;;;;23.10;10.07;;;7.20;99.90;;;6.38;100.00;102957.34;5074255;28;20212;-75
2023/12/16 00:22:39;;;;;;;20.80;9.60;;;7.30;99.90;;;6.39;100.00;102969.72;5073965;28;20261;-75
2023/12/16 00:25:09;;;;;;;29.00;10.03;;;7.20;99.90;;;6.39;100.00;102969.72;5073744;28;20244;-76
2023/12/16 00:27:37;;;;;;;22.63;10.07;;;7.20;99.90;;;6.38;100.00;102965.31;5074018;28;20202;-76
2023/12/16 00:30:08;;;;;;;24.90;9.77;;;7.20;99.90;;;6.38;100.00;102970.66;5073960;28;20300;-75
2023/12/16 00:32:39;;;;;;;28.83;9.70;;;7.30;99.90;;;6.37;100.00;102976.91;5073540;28;20265;-75
2023/12/16 00:35:09;;;;;;;29.67;9.87;;;7.20;99.90;;;6.36;100.00;102975.19;5073933;28;20210;-76
2023/12/16 00:37:37;;;;;;;27.47;10.33;;;7.20;99.90;;;6.34;100.00;102977.06;5073934;28;20232;-75
2023/12/16 00:40:08;;;;;;;22.03;9.27;;;7.20;99.90;;;6.34;100.00;102977.06;5073887;28;20212;-75
2023/12/16 00:42:37;;;;;;;23.47;9.80;;;7.20;99.90;;;6.35;100.00;102978.78;5075154;28;20244;-75
2023/12/16 00:45:06;;;;;;;25.40;9.40;;;7.20;99.90;;;6.35;100.00;102978.78;5073985;28;20209;-76
2023/12/16 00:47:36;;;;;;;22.90;9.50;;;7.20;99.90;;;6.35;100.00;102976.13;5073725;28;20606;-75
2023/12/16 00:50:08;;;;;;;23.77;9.47;;;7.20;99.90;;;6.35;100.00;102978.78;5073783;28;20342;-75
2023/12/16 00:52:36;;;;;;;25.57;8.80;;;7.20;99.90;;;6.34;100.00;102977.06;5073220;28;20228;-75
2023/12/16 00:55:05;;;;;;;26.03;9.90;;;7.20;99.90;;;6.34;100.00;102973.53;5073356;28;20209;-75
2023/12/16 00:57:34;;;;;;;22.37;8.77;;;7.20;99.90;;;6.34;100.00;102970.88;5073662;28;20302;-75
2023/12/16 01:00:02;;;;;;;20.27;9.03;;;7.20;99.90;;;6.32;100.00;102968.31;5073629;28;20201;-75
2023/12/16 01:02:30;;;;;;;26.83;9.77;;;7.20;99.90;;;6.32;100.00;102978.09;5073487;28;20221;-75
2023/12/16 01:05:00;;;;;;;20.57;8.63;;;7.20;99.90;;;6.30;100.00;102959.53;5073369;28;20209;-75
2023/12/16 01:07:29;;;;;;;24.83;9.80;;;7.10;99.90;;;6.29;100.00;102971.13;5073529;28;20241;-75
2023/12/16 01:09:57;;;;;;;27.97;8.90;;;7.20;99.90;;;6.29;100.00;102968.47;5073621;28;20251;-75
2023/12/16 01:12:25;;;;;;;29.10;9.47;;;7.20;99.90;;;6.28;100.00;102968.53;5073372;28;20229;-75
2023/12/16 01:14:54;;;;;;;23.43;8.53;;;7.20;99.90;;;6.27;100.00;102969.50;5073158;28;20617;-75
2023/12/16 01:17:22;;;;;;;27.40;8.93;;;7.10;99.90;;;6.25;100.00;102966.91;5073219;28;20781;-75
2023/12/16 01:19:51;;;;;;;25.37;8.53;;;7.10;99.90;;;6.24;100.00;102975.81;5073393;28;20300;-75
2023/12/16 01:22:23;;;;;;;25.60;9.27;;;7.10;99.90;;;6.24;100.00;102975.81;5073027;28;20253;-75
2023/12/16 01:24:51;;;;;;;25.97;8.97;;;7.10;99.90;;;6.23;100.00;102974.09;5073455;28;20251;-75
2023/12/16 01:27:20;;;;;;;21.20;8.30;;;7.10;99.90;;;6.22;100.00;102976.84;5074111;28;20205;-75
2023/12/16 01:29:48;;;;;;;22.67;8.80;;;7.00;99.90;;;6.19;100.00;102977.84;5077268;28;20304;-75
2023/12/16 01:32:16;;;;;;;25.63;8.23;;;7.00;99.90;;;6.17;100.00;102979.72;5077080;28;20311;-75
2023/12/16 01:34:44;;;;;;;19.40;7.73;;;7.00;99.90;;;6.15;100.00;102981.59;5077427;28;20221;-75
2023/12/16 01:37:12;;;;;;;19.83;8.07;;;7.00;99.90;;;6.14;100.00;102977.22;5077282;28;20209;-75
2023/12/16 01:39:42;;;;;;;25.83;8.83;;;7.00;99.90;;;6.14;100.00;102977.22;5077311;28;20205;-75
2023/12/16 01:42:10;;;;;;;25.10;8.33;;;7.00;99.90;;;6.15;100.00;102978.09;5076910;28;20221;-75
2023/12/16 01:44:38;;;;;;;17.27;6.80;;;7.00;99.90;;;6.13;100.00;102973.69;5077208;28;20232;-75
2023/12/16 01:47:07;;;;;;;19.67;6.67;;;7.00;99.90;;;6.13;100.00;102984.31;5077090;28;20212;-75
2023/12/16 01:49:37;;;;;;;20.07;7.07;;;7.00;99.90;;;6.13;100.00;102980.81;5077080;28;20263;-75
2023/12/16 01:52:07;;;;;;;23.03;7.67;;;7.00;99.90;;;6.10;100.00;102983.63;5076890;28;20255;-75
2023/12/16 01:54:35;;;;;;;27.10;7.47;;;7.00;99.90;;;6.09;100.00;102985.44;5076961;28;20255;-75
2023/12/16 01:57:06;;;;;;;19.70;6.93;;;6.90;99.90;;;6.07;100.00;102981.13;5077032;28;20292;-75
2023/12/16 01:59:34;;;;;;;22.63;7.40;;;6.90;99.90;;;6.06;100.00;102990.06;5076662;28;20244;-75
2023/12/16 02:02:04;;;;;;;21.83;7.03;;;6.90;99.90;;;6.07;100.00;102994.41;5076789;28;20256;-75
2023/12/16 02:04:33;;;;;;;13.63;6.83;;;6.90;99.90;;;6.05;100.00;102986.53;5076559;28;20205;-75
2023/12/16 02:07:02;;;;;;;20.80;6.83;;;6.90;99.90;;;6.05;100.00;102990.97;5076721;28;20201;-75
2023/12/16 02:09:30;;;;;;;24.37;7.67;;;6.90;99.90;;;6.02;100.00;102985.81;5076626;28;20201;-75
2023/12/16 02:11:59;;;;;;;20.53;7.50;;;6.90;99.90;;;6.02;100.00;102977.84;5076560;28;20252;-75
2023/12/16 02:14:29;;;;;;;17.00;7.23;;;6.80;99.90;;;6.00;100.00;102977.91;5076423;28;20225;-75
2023/12/16 02:16:58;;;;;;;21.30;7.47;;;6.90;99.90;;;5.99;100.00;102984.16;5076252;28;20296;-75
2023/12/16 02:19:28;;;;;;;19.57;6.93;;;6.90;99.90;;;5.99;100.00;102988.63;5076143;28;20687;-75
2023/12/16 02:21:56;;;;;;;23.47;6.77;;;6.90;99.90;;;6.00;100.00;102993.00;5075956;28;20198;-74
2023/12/16 02:24:28;;;;;;;16.47;6.90;;;6.80;99.90;;;6.00;100.00;102993.00;5077752;28;20570;-75
2023/12/16 02:26:57;;;;;;;19.30;7.40;;;6.90;99.90;;;6.00;100.00;102985.03;5077167;28;20221;-75
2023/12/16 02:29:25;;;;;;;18.00;7.37;;;6.80;99.90;;;6.00;100.00;102985.88;5076234;28;20252;-75
2023/12/16 02:31:53;;;;;;;15.10;5.97;;;6.90;99.90;;;6.01;100.00;102982.28;5075850;28;20300;-75
2023/12/16 02:34:23;;;;;;;20.57;7.03;;;6.90;99.90;;;6.02;100.00;102989.34;5075676;28;20228;-75
2023/12/16 02:36:51;;;;;;;18.40;6.50;;;6.90;99.90;;;6.02;100.00;102996.47;5076158;28;20205;-75
2023/12/16 02:39:19;;;;;;;15.17;6.47;;;6.90;99.90;;;6.01;100.00;102990.28;5076019;28;20233;-75
2023/12/16 02:41:49;;;;;;;15.57;5.67;;;6.90;99.90;;;6.00;100.00;102982.38;5076037;28;20202;-75
2023/12/16 02:44:17;;;;;;;22.93;6.77;;;6.90;99.90;;;6.02;100.00;102991.16;5075656;28;20687;-75
2023/12/16 02:46:45;;;;;;;17.30;5.80;;;6.90;99.90;;;6.01;100.00;102989.41;5076352;28;20251;-75
2023/12/16 02:49:13;;;;;;;17.03;6.43;;;6.90;99.90;;;6.02;99.79;102981.38;5075852;28;20233;-75
2023/12/16 02:51:42;;;;;;;15.77;5.97;;;6.90;99.90;;;6.02;99.74;102992.00;5075812;28;20233;-75
2023/12/16 02:54:10;;;;;;;21.07;6.17;;;6.90;99.90;;;6.03;99.08;102992.84;5076503;28;20264;-75
2023/12/16 02:56:38;;;;;;;17.97;5.80;;;6.90;99.90;;;6.02;98.89;102996.47;5077015;28;20284;-75
2023/12/16 02:59:08;;;;;;;15.27;5.57;;;6.90;99.90;;;6.02;98.94;102993.81;5075616;28;20229;-75
2023/12/16 03:01:36;;;;;;;14.23;5.27;;;6.90;99.90;;;6.02;98.65;102996.47;5075275;28;20645;-75
2023/12/16 03:04:04;;;;;;;15.23;5.47;;;6.90;99.90;;;6.02;98.74;103001.78;5075261;28;20764;-74
2023/12/16 03:06:32;;;;;;;11.77;5.03;;;6.90;99.90;;;6.03;98.79;103000.81;5075305;28;20668;-75
2023/12/16 03:09:00;;;;;;;16.60;5.77;;;6.90;99.90;;;6.02;98.24;102997.31;5075283;28;20245;-75
2023/12/16 03:11:29;;;;;;;17.50;5.63;;;6.90;99.90;;;6.03;98.22;102998.16;5075513;28;20233;-76
2023/12/16 03:13:57;;;;;;;18.13;5.67;;;6.90;99.90;;;6.03;97.38;102998.16;5075310;28;20225;-75
2023/12/16 03:16:27;;;;;;;13.07;4.87;;;6.90;99.90;;;6.01;97.52;102998.25;5075052;28;20694;-75
2023/12/16 03:18:55;;;;;;;12.23;5.73;;;6.90;99.90;;;6.01;97.73;103000.91;5075385;28;20227;-75
2023/12/16 03:21:24;;;;;;;12.57;5.63;;;6.90;99.90;;;6.02;97.29;103004.44;5075296;28;20202;-75
2023/12/16 03:23:52;;;;;;;16.70;5.30;;;6.90;99.90;;;6.04;97.38;103013.19;5075080;28;20668;-75
2023/12/16 03:26:20;;;;;;;14.17;5.07;;;6.90;99.90;;;6.02;96.98;102999.13;5076416;28;20747;-75
2023/12/16 03:28:49;;;;;;;16.57;4.57;;;6.90;99.90;;;6.01;96.49;102997.38;5075145;28;20233;-75
2023/12/16 03:31:17;;;;;;;9.40;4.50;;;6.90;99.90;;;6.01;96.50;102992.06;5075095;28;20205;-75
2023/12/16 03:33:46;;;;;;;14.73;4.83;;;6.80;99.90;;;6.01;96.56;102978.78;5074656;28;20244;-75
2023/12/16 03:36:15;;;;;;;14.77;5.00;;;6.90;99.90;;;6.00;96.59;102990.34;5074988;28;20212;-75
2023/12/16 03:38:43;;;;;;;11.97;4.90;;;6.80;99.90;;;6.00;97.16;102987.69;5074917;28;20233;-75
2023/12/16 03:41:13;;;;;;;16.37;5.60;;;6.90;99.90;;;5.99;96.60;102992.13;5074646;28;20702;-75
2023/12/16 03:43:41;;;;;;;14.23;5.30;;;6.90;99.90;;;5.99;96.38;102997.44;5074463;28;20719;-75
2023/12/16 03:46:09;;;;;;;13.17;4.83;;;6.80;99.90;;;6.00;96.23;102998.31;5074800;28;20217;-75
2023/12/16 03:48:37;;;;;;;15.67;5.33;;;6.80;99.90;;;5.99;95.66;102993.97;5074762;28;20304;-75
2023/12/16 03:51:07;;;;;;;11.07;4.37;;;6.80;99.90;;;6.00;95.03;102995.66;5074208;28;20643;-75
2023/12/16 03:53:35;;;;;;;14.43;4.60;;;6.90;99.90;;;6.00;94.77;102987.69;5074163;28;20225;-75
2023/12/16 03:56:04;;;;;;;13.63;4.33;;;6.80;99.90;;;5.99;94.63;102991.31;5074737;28;20215;-75
2023/12/16 03:58:35;;;;;;;12.13;4.40;;;6.90;99.90;;;6.00;94.85;102990.34;5074278;28;20636;-75
2023/12/16 04:01:05;;;;;;;13.83;4.50;;;6.90;99.90;;;6.01;94.21;102984.09;5074492;28;20201;-75
2023/12/16 04:03:33;;;;;;;10.97;3.93;;;6.90;99.90;;;6.01;93.98;102989.41;5074396;28;20265;-75
2023/12/16 04:06:01;;;;;;;10.67;4.10;;;6.90;99.90;;;6.00;94.01;102979.69;5074337;28;20210;-75
2023/12/16 04:08:31;;;;;;;12.50;4.67;;;6.90;99.90;;;6.00;94.55;102979.69;5074433;28;20201;-75
2023/12/16 04:10:59;;;;;;;10.23;3.90;;;6.90;99.90;;;6.00;93.77;102971.72;5074442;28;20236;-75
2023/12/16 04:13:27;;;;;;;12.93;4.20;;;6.90;99.90;;;6.00;93.71;102982.38;5074087;28;20308;-74
2023/12/16 04:15:55;;;;;;;11.63;3.67;;;6.90;99.90;;;6.00;92.57;102971.72;5074362;28;20275;-75
2023/12/16 04:18:24;;;;;;;14.30;4.40;;;6.90;99.90;;;6.00;92.80;102966.41;5074151;28;20209;-75
2023/12/16 04:20:52;;;;;;;17.43;4.33;;;6.90;99.90;;;6.01;92.08;102968.13;5074147;28;20598;-75
2023/12/16 04:23:20;;;;;;;11.17;3.40;;;6.90;99.90;;;6.01;91.73;102968.13;5073810;28;20750;-75
2023/12/16 04:25:50;;;;;;;17.40;3.43;;;6.90;99.90;;;6.01;90.96;102969.00;5074057;28;20296;-75
2023/12/16 04:28:18;;;;;;;12.80;3.50;;;6.90;99.90;;;6.03;90.39;102968.91;5074154;28;20233;-75
2023/12/16 04:30:46;;;;;;;11.70;3.87;;;6.90;99.90;;;6.04;90.54;102967.97;5073649;28;20738;-75
2023/12/16 04:33:14;;;;;;;13.10;3.47;;;6.90;99.90;;;6.04;90.61;102962.66;5073565;28;20265;-75
2023/12/16 04:35:43;;;;;;;8.83;3.50;;;6.90;99.90;;;6.04;91.19;102962.66;5073832;28;20236;-75
2023/12/16 04:38:11;;;;;;;10.07;3.07;;;6.90;99.90;;;6.03;91.14;102963.59;5074060;28;20300;-75
2023/12/16 04:40:40;;;;;;;12.40;3.53;;;6.90;99.90;;;6.04;89.48;102967.97;5073550;28;20773;-75
2023/12/16 04:43:10;;;;;;;12.23;3.17;;;6.90;99.90;;;6.05;89.04;102975.03;5073863;28;20253;-75
2023/12/16 04:45:38;;;;;;;12.47;3.20;;;6.90;99.90;;;6.06;88.83;102984.75;5073870;28;20201;-75
2023/12/16 04:48:06;;;;;;;13.70;3.50;;;6.90;99.90;;;6.06;88.49;102987.41;5073809;28;20213;-75
2023/12/16 04:50:35;;;;;;;13.03;3.83;;;7.00;99.90;;;6.08;87.97;103006.78;5073367;28;20300;-75
2023/12/16 04:53:03;;;;;;;9.63;3.73;;;7.00;99.90;;;6.07;88.45;103007.72;5073667;28;20316;-75
2023/12/16 04:55:31;;;;;;;14.00;3.37;;;6.90;99.90;;;6.06;87.79;103009.50;5073632;28;20691;-75
2023/12/16 04:57:59;;;;;;;15.13;3.37;;;7.00;99.90;;;6.06;88.53;103008.66;5073274;28;20679;-75
2023/12/16 05:00:29;;;;;;;9.30;3.53;;;6.90;99.90;;;6.05;88.21;103006.94;5073366;28;20205;-75
2023/12/16 05:02:57;;;;;;;13.50;3.23;;;7.00;99.90;;;6.06;88.22;103014.00;5072748;28;20274;-75
2023/12/16 05:05:25;;;;;;;9.73;2.87;;;7.00;99.90;;;6.06;87.52;103014.81;5073679;28;20198;-75
2023/12/16 05:07:53;;;;;;;9.67;3.00;;;6.90;99.90;;;6.08;87.35;103028.06;5073546;28;20249;-75
2023/12/16 05:10:21;;;;;;;10.10;2.97;;;7.00;99.90;;;6.08;88.08;103038.69;5073552;28;20237;-75
2023/12/16 05:12:49;;;;;;;11.10;3.13;;;7.00;99.90;;;6.07;88.09;103036.97;5073505;28;20222;-75
2023/12/16 05:15:18;;;;;;;12.50;3.20;;;7.00;99.90;;;6.07;88.21;103036.97;5073155;28;20225;-75
2023/12/16 05:17:47;;;;;;;15.30;3.07;;;7.00;99.90;;;6.08;87.72;103038.69;5073164;28;20215;-75
2023/12/16 05:20:16;;;;;;;16.03;3.97;;;6.90;99.90;;;6.07;87.83;103034.31;5073353;28;20205;-75
2023/12/16 05:22:44;;;;;;;11.63;2.80;;;7.00;99.90;;;6.08;87.85;103041.34;5073358;28;20225;-75
2023/12/16 05:25:12;;;;;;;12.10;3.00;;;6.90;99.90;;;6.07;88.14;103036.97;5073460;28;20300;-75
2023/12/16 05:27:41;;;;;;;10.80;3.50;;;6.90;99.90;;;6.06;87.96;103040.59;5073298;28;20262;-75
2023/12/16 05:30:11;;;;;;;12.57;3.30;;;6.90;99.90;;;6.06;88.14;103040.59;5073361;28;20288;-75
2023/12/16 05:32:39;;;;;;;11.20;3.30;;;7.00;99.90;;;6.05;88.54;103034.41;5073107;28;20237;-75
2023/12/16 05:35:09;;;;;;;18.40;3.53;;;6.90;99.90;;;6.06;87.48;103037.91;5073240;28;20634;-75
2023/12/16 05:37:38;;;;;;;9.30;3.20;;;6.90;99.90;;;6.04;88.52;103037.13;5073207;28;20215;-75
2023/12/16 05:40:08;;;;;;;14.90;4.13;;;6.90;99.90;;;6.04;88.28;103031.81;5073210;28;20232;-75
2023/12/16 05:42:36;;;;;;;14.40;3.40;;;6.90;99.90;;;6.03;88.53;103028.28;5073040;28;20275;-75
2023/12/16 05:45:06;;;;;;;16.63;4.30;;;6.90;99.90;;;6.02;88.31;103029.22;5073204;28;20258;-75
2023/12/16 05:47:36;;;;;;;11.43;3.73;;;6.90;99.90;;;6.04;88.94;103037.13;5073182;28;20300;-75
2023/12/16 05:50:08;;;;;;;14.27;3.70;;;6.00;99.90;;;6.03;89.09;103038.03;5073101;28;20199;-76
2023/12/16 05:52:38;;;;;;;11.93;3.50;;;6.90;99.90;;;6.02;89.05;103039.00;5073104;28;20230;-75
2023/12/16 05:55:07;;;;;;;12.17;3.40;;;6.90;99.90;;;6.03;89.23;103040.72;5072644;28;20221;-75
2023/12/16 05:57:35;;;;;;;14.17;4.20;;;6.90;99.90;;;6.03;89.23;103046.88;5072949;28;20205;-75
2023/12/16 06:00:08;;;;;;;12.57;4.03;;;6.90;99.90;;;6.03;89.50;103041.56;5073031;28;20208;-75
2023/12/16 06:02:36;;;;;;;13.53;4.00;;;6.90;99.90;;;6.04;88.94;103037.13;5072545;28;20671;-75
2023/12/16 06:05:06;;;;;;;13.53;4.50;;;6.90;99.90;;;6.03;89.14;103030.06;5072853;28;20206;-75
2023/12/16 06:07:34;;;;;;;10.10;4.03;;;6.90;99.90;;;6.04;89.53;103042.44;5073185;28;20209;-75
2023/12/16 06:10:05;;;;;;;12.87;4.27;;;6.90;99.90;;;6.03;89.20;103043.38;5072896;28;20240;-75
2023/12/16 06:12:35;;;;;;;14.67;4.00;;;6.90;99.90;;;6.03;89.43;103038.03;5072874;28;20310;-75
2023/12/16 06:15:04;;;;;;;15.23;4.40;;;6.90;99.90;;;6.02;89.43;103039.88;5076037;28;20263;-75
2023/12/16 06:17:32;;;;;;;17.47;4.33;;;6.90;99.90;;;6.02;90.22;103049.66;5076123;28;20705;-74
2023/12/16 06:20:01;;;;;;;13.63;4.23;;;6.90;99.90;;;6.00;90.21;103051.50;5076413;28;20209;-74
2023/12/16 06:22:30;;;;;;;11.57;4.20;;;6.90;99.90;;;5.99;90.29;103055.13;5076088;28;20233;-74
2023/12/16 06:24:58;;;;;;;16.40;4.40;;;6.90;99.90;;;5.99;90.07;103049.78;5075969;28;20207;-74
2023/12/16 06:27:28;;;;;;;11.77;3.87;;;6.90;99.90;;;5.98;90.11;103051.59;5076213;28;20205;-74
2023/12/16 06:29:56;;;;;;;13.90;4.50;;;6.90;99.90;;;5.98;89.80;103058.69;5075887;28;20208;-74
2023/12/16 06:32:24;;;;;;;10.87;3.60;;;6.90;99.90;;;5.97;90.83;103055.19;5075944;28;20229;-74
2023/12/16 06:34:52;;;;;;;15.00;4.20;;;6.90;99.90;;;5.97;90.38;103054.31;5076065;28;20213;-74
2023/12/16 06:37:20;;;;;;;15.20;4.40;;;6.80;99.90;;;5.97;90.49;103064.94;5076020;28;20276;-74
2023/12/16 06:39:49;;;;;;;13.87;3.93;;;6.90;99.90;;;5.97;90.50;103072.91;5076001;28;20227;-75
2023/12/16 06:42:17;;;;;;;13.03;4.30;;;6.90;99.90;;;5.96;90.40;103072.06;5075605;28;20702;-74
2023/12/16 06:44:46;;;;;;;13.20;4.30;;;6.80;99.90;;;5.97;90.29;103083.56;5075941;28;20291;-74
2023/12/16 06:47:15;;;;;;;18.23;4.80;;;6.80;99.90;;;5.95;90.73;103078.31;5075878;28;20291;-74
2023/12/16 06:49:45;;;;;;;10.57;4.00;;;6.80;99.90;;;5.96;90.75;103076.50;5075870;28;20208;-74
2023/12/16 06:52:15;;;;;;;12.47;4.20;;;6.80;99.90;;;5.96;90.67;103095.13;5075777;28;20228;-74
2023/12/16 06:54:43;;;;;;;17.43;4.73;;;6.80;99.90;;;5.94;90.87;103094.34;5075959;28;20292;-74
2023/12/16 06:57:10;;;;;;;19.23;4.30;;;6.80;99.90;;;5.94;91.41;103087.22;5075699;28;20205;-75
2023/12/16 06:59:41;;;;;;;15.77;4.07;;;6.80;99.90;;;5.94;90.89;103078.38;5075618;28;20292;-74
2023/12/16 07:02:11;;;;;;;14.23;4.17;;;6.80;99.90;;;5.93;91.21;103068.69;5075356;28;20221;-76
2023/12/16 07:04:39;;;;;;;14.20;3.90;;;6.80;99.90;;;5.93;90.88;103071.34;5075544;28;20254;-74
2023/12/16 07:07:07;;;;;;;10.47;4.77;;;6.80;99.90;;;5.92;91.20;103066.97;5075484;28;20201;-74
2023/12/16 07:09:36;;;;;;;12.97;4.40;;;6.80;99.90;;;5.92;90.41;103075.81;5075475;28;20205;-74
2023/12/16 07:12:05;;;;;;;13.67;4.50;;;6.80;99.90;;;5.92;90.81;103073.16;5075114;28;20630;-74
2023/12/16 07:14:34;;;;;;;10.37;4.10;;;6.80;99.90;;;5.92;90.99;103070.50;5075411;28;20210;-74
2023/12/16 07:17:02;;;;;;;17.03;4.60;;;6.80;99.90;;;5.92;91.37;103069.63;5075247;28;20628;-74
2023/12/16 07:19:34;;;;;;;12.13;4.30;;;6.80;99.90;;;5.92;91.39;103065.19;5075287;28;20237;-75
2023/12/16 07:22:03;;;;;;;12.83;4.20;;;6.80;99.90;;;5.91;91.15;103066.13;5075226;28;20251;-74
2023/12/16 07:24:31;;;;;;;13.90;4.50;;;6.80;99.90;;;5.92;90.59;103064.31;5074845;28;20209;-74
2023/12/16 07:26:59;;;;;;;19.87;4.50;;;6.80;99.90;;;5.92;90.80;103067.84;5074694;28;20225;-74
2023/12/16 07:29:27;;;;;;;12.37;4.67;;;6.80;99.90;;;5.93;90.62;103066.03;5075202;28;20292;-74
2023/12/16 07:31:55;;;;;;;15.63;4.87;;;6.80;99.90;;;5.91;90.39;103062.59;5074900;28;20296;-74
2023/12/16 07:34:24;;;;;;;15.20;4.37;;;6.80;99.90;;;5.92;90.78;103072.28;5074557;28;20213;-74
2023/12/16 07:36:53;;;;;;;14.53;5.00;;;6.80;99.90;;;5.92;90.16;103069.63;5074590;28;20721;-74
2023/12/16 07:39:22;;;;;;;19.43;5.27;;;6.80;99.90;;;5.91;90.03;103067.91;5074984;28;20281;-74
2023/12/16 07:41:52;;;;;;;14.47;5.27;;;6.80;99.90;;;5.89;90.20;103075.09;5075129;28;20233;-74
2023/12/16 07:44:20;;;;;;;21.17;6.13;;;6.80;99.90;;;5.88;89.79;103073.38;5074422;28;20683;-75
2023/12/16 07:46:49;;;;;;;17.47;5.63;;;6.70;99.90;;;5.88;89.98;103076.03;5074636;28;20203;-75
2023/12/16 07:49:19;;;;;;;15.17;4.97;;;6.80;99.90;;;5.86;89.95;103075.22;5074465;28;20674;-74
2023/12/16 07:51:47;;;;;;;16.57;4.67;;;6.70;99.90;;;5.84;89.68;103069.97;5074740;28;20220;-74
2023/12/16 07:54:17;;;;;;;15.87;5.37;;;6.70;99.90;;;5.82;89.63;103066.50;5074600;28;20379;-75
2023/12/16 07:56:45;;;;;;;18.40;4.70;;;6.70;99.90;;;5.82;90.11;103063.00;5074190;28;20768;-75
2023/12/16 07:59:13;;;;;;;13.17;4.70;;;6.70;99.90;;;5.80;89.62;103048.91;5076977;28;20212;-74
2023/12/16 08:01:41;;;;;;;18.80;5.67;;;6.60;99.90;;;5.77;89.87;103046.41;5075764;28;20243;-75
2023/12/16 08:04:10;;;;;;;12.70;5.10;;;6.70;99.90;;;5.79;89.85;103042.72;5074024;28;20633;-74
2023/12/16 08:06:38;;;;;;;18.63;4.87;;;6.60;99.90;;;5.79;89.69;103055.19;5074377;28;20201;-75
2023/12/16 08:09:07;;;;;;;15.83;4.90;;;6.70;99.90;;;5.78;89.59;103048.13;5074417;28;20217;-75
2023/12/16 08:11:36;;;;;;;13.40;5.27;;;6.60;99.90;;;5.78;89.40;103051.66;5074372;28;20201;-75
2023/12/16 08:14:06;;;;;;;16.77;5.63;;;6.60;99.90;;;5.77;89.79;103039.28;5073831;28;20598;-75
2023/12/16 08:16:37;;;;;;;16.03;5.07;;;6.70;99.90;;;5.78;89.02;103034.84;5074147;28;20261;-75
2023/12/16 08:19:05;;;;;;;17.30;4.97;;;6.70;99.90;;;5.76;89.74;103034.03;5073891;28;20186;-75
2023/12/16 08:21:34;;;;;;;17.73;5.33;;;6.60;99.90;;;5.75;89.50;103030.53;5074129;28;20206;-74
2023/12/16 08:24:02;;;;;;;13.63;4.63;;;6.60;99.90;;;5.76;88.88;103034.03;5073698;28;20576;-74
2023/12/16 08:26:33;;;;;;;15.53;4.87;;;6.60;99.90;;;5.74;89.09;103031.47;5073816;28;20292;-74
2023/12/16 08:29:03;;;;;;;16.70;5.00;;;6.60;99.90;;;5.76;89.22;103036.69;5073938;28;20281;-74
2023/12/16 08:31:31;;;;;;;14.03;5.47;;;6.60;99.90;;;5.76;88.93;103037.56;5073624;28;20682;-74
2023/12/16 08:34:00;;;;;;;14.63;5.00;;;6.60;99.90;;;5.77;89.32;103035.75;5073385;28;20722;-74
2023/12/16 08:36:28;;;;;;;16.13;5.17;;;6.60;99.90;;;5.77;89.03;103044.59;5073622;28;20315;-74
2023/12/16 08:38:56;;;;;;;17.20;4.53;;;6.60;99.90;;;5.79;89.23;103049.88;5073788;28;20229;-74
2023/12/16 08:41:25;;;;;;;18.40;4.77;;;6.70;99.90;;;5.81;88.55;103056.81;5073825;28;20216;-74
2023/12/16 08:43:54;;;;;;;12.17;4.53;;;6.70;99.90;;;5.82;88.83;103063.00;5073205;28;20282;-74
2023/12/16 08:46:25;;;;;;;14.77;4.63;;;6.70;99.90;;;5.84;88.22;103063.78;5073365;28;20241;-74
2023/12/16 08:48:55;;;;;;;16.33;5.10;;;6.70;99.90;;;5.85;88.91;103062.84;5073673;28;20193;-74
2023/12/16 08:51:24;;;;;;;12.60;4.53;;;6.70;99.90;;;5.86;88.87;103054.81;5073377;28;20545;-74
2023/12/16 08:53:53;;;;;;;16.10;4.50;;;6.80;99.90;;;5.90;88.48;103044.91;5073535;28;20256;-74
2023/12/16 08:56:21;;;;;;;18.90;4.97;;;6.80;99.90;;;5.91;88.84;103055.47;5073486;28;20274;-74
2023/12/16 08:58:49;;;;;;;14.10;4.40;;;6.80;99.90;;;5.93;89.00;103055.38;5073229;28;20558;-74
2023/12/16 09:01:17;;;;;;;14.03;5.00;;;6.80;99.90;;;5.96;88.47;103056.09;5073535;28;20205;-75
2023/12/16 09:03:47;;;;;;;16.47;5.10;;;6.90;99.90;;;6.01;88.55;103058.53;5073418;28;20226;-74
2023/12/16 09:06:16;;;;;;;16.93;4.87;;;6.90;99.90;;;6.08;88.38;103065.28;5073520;28;20192;-74
2023/12/16 09:08:44;;;;;;;13.80;4.57;;;6.90;99.90;;;6.13;87.85;103062.41;5073431;28;20288;-74
2023/12/16 09:11:12;;;;;;;10.07;4.20;;;7.00;99.90;;;6.17;88.44;103067.50;5072938;28;20583;-74
2023/12/16 09:13:41;;;;;;;12.90;4.70;;;7.00;99.90;;;6.19;88.53;103062.09;5072939;28;20221;-74
2023/12/16 09:16:09;;;;;;;15.87;4.80;;;7.10;99.90;;;6.22;88.39;103056.63;5072962;28;20205;-74
2023/12/16 09:18:38;;;;;;;15.97;4.93;;;7.10;99.90;;;6.24;88.32;103058.28;5073339;28;20213;-74
2023/12/16 09:21:08;;;;;;;14.43;4.67;;;7.10;99.90;;;6.31;88.21;103056.16;5073048;28;20201;-74
2023/12/16 09:23:36;;;;;;;15.87;4.87;;;7.20;99.90;;;6.35;88.33;103041.78;5073207;28;20313;-74
2023/12/16 09:26:05;;;;;;;18.33;5.27;;;7.20;99.90;;;6.36;87.82;103044.38;5073362;28;20237;-74
2023/12/16 09:28:33;;;;;;;15.63;5.17;;;7.30;99.90;;;6.40;87.77;103045.94;5072938;28;20223;-74
2023/12/16 09:31:01;;;;;;;15.10;5.27;;;7.30;99.90;;;6.47;87.62;103059.81;5073218;28;20206;-74
2023/12/16 09:33:30;;;;;;;18.40;4.80;;;7.30;99.90;;;6.45;88.51;103064.31;5072795;28;20229;-75
2023/12/16 09:35:58;;;;;;;14.83;4.30;;;7.30;99.90;;;6.46;88.17;103074.91;5072828;28;20743;-74
2023/12/16 09:38:27;;;;;;;14.63;4.73;;;7.40;99.90;;;6.44;88.66;103068.78;5073087;28;20315;-74
2023/12/16 09:40:56;;;;;;;17.83;4.40;;;7.40;99.90;;;6.45;88.99;103065.19;5073075;28;20292;-74
2023/12/16 09:43:24;;;;;;;13.30;4.43;;;7.30;99.90;;;6.47;88.97;103065.94;5073127;28;20235;-74
2023/12/16 09:45:53;;;;;;;18.50;4.90;;;7.40;99.90;;;6.46;89.87;103050.94;5073594;28;20529;-75
2023/12/16 09:48:23;;;;;;;13.63;4.20;;;7.40;99.90;;;6.52;88.95;103053.28;5073826;28;20228;-75
2023/12/16 09:50:52;;;;;;;11.43;4.73;;;7.40;99.90;;;6.55;88.83;103050.47;5077038;28;20236;-75
2023/12/16 09:53:20;;;;;;;16.00;4.47;;;7.50;99.90;;;6.54;89.69;103048.75;5076495;28;20641;-75
2023/12/16 09:55:52;;;;;;;16.57;4.53;;;7.40;99.90;;;6.54;89.29;103056.72;5077501;28;20194;-75
2023/12/16 09:58:22;;;;;;;18.50;4.50;;;7.50;99.90;;;6.57;89.67;103053.94;5076770;28;20241;-74
2023/12/16 10:00:52;;;;;;;12.83;3.80;;;7.50;99.90;;;6.55;89.71;103045.16;5076761;28;20201;-75
2023/12/16 10:03:21;;;;;;;11.10;3.80;;;7.50;99.90;;;6.59;89.85;103053.84;5076768;28;20225;-75
2023/12/16 10:05:51;;;;;;;16.40;4.73;;;7.50;99.90;;;6.61;90.48;103050.16;5076678;28;20221;-75
2023/12/16 10:08:20;;;;;;;16.63;4.80;;;7.50;99.90;;;6.62;90.04;103053.69;5076323;28;20629;-75
2023/12/16 10:10:48;;;;;;;21.27;4.93;;;7.50;99.90;;;6.66;90.15;103051.72;5076536;28;20209;-75
2023/12/16 10:13:27;;;;;;;16.90;5.03;;;7.50;99.90;;;6.68;90.57;103057.84;5076425;28;20225;-75
2023/12/16 10:15:56;;;;;;;14.63;4.27;;;7.60;99.90;;;6.71;90.64;103039.06;5076590;28;20225;-75
2023/12/16 10:18:24;;;;;;;14.80;4.57;;;7.60;99.90;;;6.73;90.22;103043.34;5076428;28;20229;-75
2023/12/16 10:20:55;;;;;;;15.80;4.33;;;7.60;99.90;;;6.75;90.87;103035.25;5076485;28;20335;-75
2023/12/16 10:23:27;;;;;;;15.13;4.37;;;7.60;99.90;;;6.81;90.58;103029.66;5076356;28;20221;-75